Tiempo atmosférico en la estación meteorológica de Carrión De Los Céspedes, Sevilla (76 m.)



Fecha
DESCASC
Temp. máxima en grados centígrados (hora)
DESCASC
Temp. mínima en grados centígrados (hora)
DESCASC
Temp. media en grados centígrados
DESCASC
Racha de viento máxima en m/sg (hora)
DESCASC
Velocidad máxima media en intervalos de 10 minutos(hora)
DESCASC
Precipitaciones diarias en mm
DESCASC
Precipitaciones de 00:00 a 06:00 en mm
DESCASC
Precipitaciones de 06:00 a 12:00 en mm
DESCASC
Precipitaciones de 12:00 a 18:00 en mm
DESCASC
Precipitaciones de 18:00 a 24:00 en mm
DESCASC
13-01-2021 16.2 (16:50) -1.5 (08:50) 7.4 4.44 (21:30) 2.5 (21:30) 0 0 0 0 0
12-01-2021 11.9 (16:30) -0.1 (08:40) 5.9 5.56 (13:00) 3.61 (12:30) 0 0 0 0 0
11-01-2021 12.9 (17:00) 1 (08:50) 6.9 5 (12:10) 3.06 (12:40) 0 0 0 0 0
10-01-2021 8.2 (16:50) 2 (07:20) 5.1 5.56 (11:30) 3.61 (11:30) 0 0 0 0 0
09-01-2021 9.9 (16:20) 2.8 (00:00) 6.3 9.17 (06:40) 6.39 (06:40) 0 0 0 0 0
08-01-2021 8.5 (16:40) 6.2 (00:00) 7.3 11.67 (15:30) 7.22 (15:30) 26.6 1.2 8.6 16.2 0.6
07-01-2021 9.6 (15:20) 6.5 (00:00) 8.1 8.06 (02:40) 5 (02:50) 6.4 3.2 0.2 0 3
06-01-2021 11.9 (14:50) 1.2 (00:00) 6.5 8.33 (18:40) 5.28 (14:20) 8.2 0 0 0 8.2
05-01-2021 10.7 (15:50) 1.5 (00:00) 6.1 6.67 (11:30) 4.17 (11:30) 0 0 0 0 0
04-01-2021 12.9 (14:40) -2.2 (-00:0) 5.3 7.22 (14:50) 4.72 (14:50) 0 0 0 0 0
03-01-2021 12.9 (15:30) -2.4 (-00:0) 5.2 8.06 (15:50) 5 (15:50) 0 0 0 0 0
02-01-2021 13.1 (16:00) -0.3 (00:00) 6.4 6.94 (15:10) 4.44 (16:10) 0 0 0 0 0
01-01-2021 13.4 (14:40) 3 (00:00) 8.2 10.28 (14:20) 6.11 (15:10) 0 0 0 0 0
31-12-2020 14.5 (15:40) -1.2 (-00:0) 6.6 8.33 (17:20) 5 (18:20) 0.2 0 0 0 0.2
30-12-2020 13.4 (15:50) -1.1 (-00:0) 6.1 4.44 (00:30) 2.78 (00:40) 0 0 0 0 0
29-12-2020 14.3 (15:30) 1.7 (00:00) 8 9.72 (14:00) 6.11 (14:00) 0 0 0 0 0
28-12-2020 14.8 (15:20) 3.7 (00:00) 9.3 14.17 (10:20) 9.72 (10:20) 0 0 0 0 0
27-12-2020 14.4 (16:10) 1.1 (00:00) 7.7 4.72 (22:40) 2.78 (16:50) 0 0 0 0 0
26-12-2020 12.2 (16:30) 3.4 (00:00) 7.8 14.72 (12:40) 9.72 (12:50) 0 0 0 0 0
25-12-2020 16.5 (15:40) 7.9 (00:00) 12.2 12.22 (13:40) 7.78 (14:10) 0 0 0 0 0
24-12-2020 18.5 (16:40) 6.9 (00:00) 12.7 3.61 (17:30) 1.94 (20:30) 0 0 0 0 0
23-12-2020 15.6 (15:30) 7.5 (01:20) 11.6 2.5 (11:20) 1.39 (12:20) 0 0 0 0 0
21-12-2020 17.6 (16:30) 6.4 (00:00) 12 6.11 (13:20) 3.61 (16:10) 0 0 0 0 0
20-12-2020 17.8 (16:00) 8.2 (00:00) 13 8.33 (00:40) 5 (00:40) 1 0.8 0 0.2 0
19-12-2020 13.7 (23:40) 9.3 (00:00) 11.5 5 (23:00) 3.06 (22:30) 6.2 0.2 1.2 2.6 2.2

Gráficas

Temp. máximas Temp. mínimas Temp. medias Precipitaciones Rachas de viento máximas Velocidades máximas media en intervalos de 10 minutos

Datos horarios

Fecha y hora oficial Temperatura (ºC) Velocidad del viento (km/h) Dirección del viento Racha (km/h) Dirección de racha Precipitación (mm) Presión (hPa) Tendencia (hPa) Humedad (%)
2021-01-17 23:00:00 3.5 0 Calma 4 Noroeste 0 -- -- 86
2021-01-17 22:00:00 5.2 0 Calma 5 Noroeste 0 -- -- 80
2021-01-17 21:00:00 6.7 3 Noroeste 9 Noroeste 0 -- -- 75
2021-01-17 20:00:00 7.7 6 Norte 9 Norte 0 -- -- 74
2021-01-17 19:00:00 11.5 4 Noroeste 6 Noroeste 0 -- -- 64
2021-01-17 18:00:00 15.4 2 Norte 8 Este 0 -- -- 49
2021-01-17 17:00:00 16.8 4 Este 13 Nordeste 0 -- -- 42
2021-01-17 16:00:00 16.4 7 Nordeste 14 Nordeste 0 -- -- 41
2021-01-17 15:00:00 15.7 10 Este 21 Nordeste 0 -- -- 42
2021-01-17 14:00:00 14.6 11 Este 21 Este 0 -- -- 43
2021-01-17 13:00:00 13.1 13 Nordeste 22 Nordeste 0 -- -- 46
2021-01-17 12:00:00 11 6 Este 14 Este 0 -- -- 55
2021-01-17 11:00:00 8.5 8 Este 13 Este 0 -- -- 62
2021-01-17 10:00:00 5.6 3 Noroeste 9 Noroeste 0 -- -- 75
2021-01-17 09:00:00 4 2 Nordeste 21 Nordeste 0 -- -- 78
2021-01-17 08:00:00 4.2 12 Nordeste 21 Nordeste 0 -- -- 78
2021-01-17 07:00:00 2.4 5 Noroeste 8 Noroeste 0 -- -- 87
2021-01-17 06:00:00 3.4 3 Norte 11 Nordeste 0 -- -- 84
2021-01-17 05:00:00 3 4 Nordeste 10 Este 0 -- -- 90
2021-01-17 04:00:00 1.6 3 Noroeste 8 Oeste 0 -- -- 91
2021-01-17 03:00:00 1.5 2 Nordeste 8 Oeste 0 -- -- 92
2021-01-17 02:00:00 1.8 3 Noroeste 6 Noroeste 0 -- -- 93
2021-01-17 01:00:00 2.8 4 Norte 6 Norte 0 -- -- 93
2021-01-17 00:00:00 3.1 5 Noroeste 8 Noroeste -- -- -- 91
2021-01-16 23:00:00 4.1 4 Noroeste 8 Norte 0 -- -- 91
2021-01-16 22:00:00 5 6 Noroeste 8 Noroeste 0 -- -- 87
2021-01-16 21:00:00 6.4 2 Sudoeste 7 Noroeste 0 -- -- 84
2021-01-16 20:00:00 7.8 3 Noroeste 8 Norte 0 -- -- 80
2021-01-16 19:00:00 11.4 3 Noroeste 8 Noroeste 0 -- -- 68
2021-01-16 18:00:00 15 2 Nordeste 9 Este 0 -- -- 59
2021-01-16 17:00:00 15.8 5 Nordeste 12 Nordeste 0 -- -- 53
2021-01-16 16:00:00 15.6 8 Nordeste 19 Nordeste 0 -- -- 52
2021-01-16 15:00:00 15.1 12 Nordeste 24 Nordeste 0 -- -- 50
2021-01-16 14:00:00 14.3 14 Nordeste 23 Este 0 -- -- 52
2021-01-16 13:00:00 12.7 12 Nordeste 19 Este 0 -- -- 59
2021-01-16 12:00:00 9.8 8 Nordeste 14 Nordeste 0 -- -- 72
2021-01-16 11:00:00 7.8 0 Calma 5 Nordeste 0 -- -- 79
2021-01-16 10:00:00 3 2 Oeste 6 Noroeste 0 -- -- 95
2021-01-16 09:00:00 0 5 Noroeste 7 Noroeste 0 -- -- 95
2021-01-16 08:00:00 -0.2 3 Noroeste 7 Noroeste 0 -- -- 94
2021-01-16 07:00:00 0.5 2 Noroeste 5 Noroeste 0 -- -- 92
2021-01-16 06:00:00 1 0 Calma 7 Noroeste 0 -- -- 92
2021-01-16 05:00:00 1.5 3 Noroeste 6 Oeste 0 -- -- 91
2021-01-16 04:00:00 1.6 0 Calma 5 Oeste 0 -- -- 92
2021-01-16 03:00:00 1.9 3 Oeste 5 Oeste 0 -- -- 91
2021-01-16 02:00:00 2.4 2 Noroeste 5 Oeste 0 -- -- 92
2021-01-16 01:00:00 2.5 3 Oeste 6 Oeste 0 -- -- 94
2021-01-16 00:00:00 3.1 3 Noroeste 5 Noroeste 0 -- -- 93
2021-01-15 23:00:00 4 0 Calma 6 Noroeste 0 -- -- 91
2021-01-15 22:00:00 5 5 Noroeste 7 Noroeste 0 -- -- 89
2021-01-15 21:00:00 6.3 3 Noroeste 7 Norte 0 -- -- 85
2021-01-15 20:00:00 8.2 2 Noroeste 7 Norte 0 -- -- 79
2021-01-15 19:00:00 10.9 3 Noroeste 8 Noroeste 0 -- -- 72
2021-01-15 18:00:00 14.3 5 Noroeste 13 Oeste 0 -- -- 60
2021-01-15 17:00:00 16.5 3 Oeste 8 Noroeste 0 -- -- 45
2021-01-15 16:00:00 16.1 3 Norte 10 Oeste 0 -- -- 48
2021-01-15 15:00:00 15.2 3 Este 6 Este 0 -- -- 49
2021-01-15 14:00:00 13.9 2 Nordeste 7 Sur 0 -- -- 54
2021-01-15 13:00:00 12.2 2 Sur 6 Sudeste 0 -- -- 63
2021-01-15 12:00:00 9.1 0 Calma 4 Sudoeste 0 -- -- 75
2021-01-15 11:00:00 4.8 3 Noroeste 6 Noroeste 0 -- -- 97
2021-01-15 10:00:00 0.8 0 Calma 5 Noroeste 0 -- -- 98
2021-01-15 09:00:00 -1.6 2 Noroeste 5 Noroeste 0 -- -- 98
2021-01-15 08:00:00 -1.2 2 Noroeste 6 Noroeste 0 -- -- 97
2021-01-15 07:00:00 -0.8 4 Noroeste 10 Noroeste 0 -- -- 97
2021-01-15 06:00:00 -0.6 5 Noroeste 8 Oeste 0 -- -- 97
2021-01-15 05:00:00 -0.6 5 Noroeste 8 Noroeste 0 -- -- 97
2021-01-15 04:00:00 0 3 Noroeste 9 Noroeste 0 -- -- 97
2021-01-15 03:00:00 0.1 5 Noroeste 7 Noroeste 0 -- -- 97
2021-01-15 02:00:00 0.2 3 Noroeste 5 Noroeste 0 -- -- 96
2021-01-15 01:00:00 1 2 Noroeste 6 Noroeste 0 -- -- 95
2021-01-15 00:00:00 1.8 3 Noroeste 5 Norte 0 -- -- 94
2021-01-14 23:00:00 2.4 4 Noroeste 7 Noroeste 0 -- -- 94
2021-01-14 22:00:00 3 2 Noroeste 6 Noroeste 0 -- -- 92
2021-01-14 21:00:00 4.6 3 Noroeste 5 Noroeste 0 -- -- 88
2021-01-14 20:00:00 6.8 2 Sudeste 5 Sudeste 0 -- -- 84
2021-01-14 19:00:00 9.6 3 Sur 5 Sudeste 0 -- -- 76
2021-01-14 18:00:00 12.6 4 Oeste 13 Sudoeste 0 -- -- 60
2021-01-14 17:00:00 14.3 5 Sudoeste 10 Sudoeste 0 -- -- 55
2021-01-14 16:00:00 13.6 3 Sur 7 Este 0 -- -- 56
2021-01-14 15:00:00 12.4 3 Norte 8 Sudoeste 0 -- -- 59
2021-01-14 14:00:00 10.4 2 Norte 7 Norte 0 -- -- 63
2021-01-14 13:00:00 9.8 4 Nordeste 8 Este 0 -- -- 63
2021-01-14 12:00:00 7.7 2 Nordeste 6 Oeste 0 -- -- 72
2021-01-14 11:00:00 5 4 Oeste 6 Oeste 0 -- -- 86
2021-01-14 10:00:00 1.4 0 Calma 3 Noroeste 0 -- -- 96
2021-01-14 09:00:00 -0.8 2 Noroeste 6 Noroeste 0 -- -- 96
2021-01-14 08:00:00 -0.9 2 Noroeste 5 Noroeste 0 -- -- 95
2021-01-14 07:00:00 -0.2 3 Noroeste 7 Noroeste 0 -- -- 96
2021-01-14 06:00:00 -0.4 5 Noroeste 6 Noroeste 0 -- -- 96
2021-01-14 05:00:00 -0.2 2 Noroeste 6 Noroeste 0 -- -- 96
2021-01-14 04:00:00 -0.4 4 Noroeste 5 Noroeste 0 -- -- 96
2021-01-14 03:00:00 0.1 0 Calma 5 Noroeste 0 -- -- 95
2021-01-14 02:00:00 0.7 3 Noroeste 7 Norte 0 -- -- 94
2021-01-14 01:00:00 1.3 0 Calma 3 Noroeste 0 -- -- 91
2021-01-14 00:00:00 2.8 2 Noroeste 5 Norte 0 -- -- 89
2021-01-13 23:00:00 4.5 0 Calma 10 Norte 0 -- -- 86
2021-01-13 22:00:00 6.2 4 Noroeste 16 Noroeste 0 -- -- 80
2021-01-13 21:00:00 5.1 4 Noroeste 7 Noroeste 0 -- -- 82
2021-01-13 20:00:00 7.3 4 Noroeste 11 Noroeste 0 -- -- 72
2021-01-13 19:00:00 9.9 3 Noroeste 9 Oeste 0 -- -- 66
2021-01-13 18:00:00 14.4 7 Oeste 11 Sudoeste 0 -- -- 45
2021-01-13 17:00:00 16.2 6 Oeste 12 Oeste 0 -- -- 36
2021-01-13 16:00:00 15 2 Norte 6 Este 0 -- -- 40
2021-01-13 15:00:00 14.3 2 Sudeste 8 Oeste 0 -- -- 38
2021-01-13 14:00:00 12.9 2 Sur 5 Norte 0 -- -- 42
2021-01-13 13:00:00 10.7 0 Calma 7 Oeste 0 -- -- 57
2021-01-13 12:00:00 7.6 4 Oeste 6 Oeste 0 -- -- 71
2021-01-13 11:00:00 4.2 2 Norte 5 Norte 0 -- -- 78
2021-01-13 10:00:00 1 4 Noroeste 8 Noroeste 0 -- -- 93
2021-01-13 09:00:00 -1.5 3 Noroeste 5 Oeste 0 -- -- 94
2021-01-13 08:00:00 -1 3 Noroeste 7 Noroeste 0 -- -- 94
2021-01-13 07:00:00 -0.9 2 Noroeste 5 Noroeste 0 -- -- 95
2021-01-13 06:00:00 -1.1 2 Noroeste 4 Oeste 0 -- -- 95
2021-01-13 05:00:00 -0.5 2 Norte 5 Noroeste 0 -- -- 95
2021-01-13 04:00:00 -0.7 3 Oeste 5 Oeste 0 -- -- 95
2021-01-13 03:00:00 -0.4 2 Noroeste 5 Norte 0 -- -- 94
2021-01-13 02:00:00 -0.2 2 Noroeste 7 Oeste 0 -- -- 93
2021-01-13 01:00:00 0.6 2 Noroeste 7 Norte 0 -- -- 93
2021-01-13 00:00:00 0.9 2 Noroeste 5 Noroeste 0 -- -- 93
2021-01-12 23:00:00 1.5 3 Noroeste 5 Noroeste 0 -- -- 92
2021-01-12 22:00:00 1.8 3 Noroeste 5 Noroeste 0 -- -- 90
2021-01-12 21:00:00 3.2 2 Noroeste 6 Noroeste 0 -- -- 87
2021-01-12 20:00:00 4.8 2 Noroeste 7 Noroeste 0 -- -- 82
2021-01-12 19:00:00 7.8 0 Calma 8 Nordeste 0 -- -- 74
2021-01-12 18:00:00 10.7 4 Nordeste 9 Nordeste 0 -- -- 60
2021-01-12 17:00:00 11.8 4 Nordeste 10 Este 0 -- -- 52
2021-01-12 16:00:00 11.7 3 Nordeste 14 Este 0 -- -- 51
2021-01-12 15:00:00 11.2 9 Este 16 Nordeste 0 -- -- 58
2021-01-12 14:00:00 10 9 Este 19 Nordeste 0 -- -- 61
2021-01-12 13:00:00 8.7 12 Nordeste 20 Nordeste 0 -- -- 59
2021-01-12 12:00:00 7.3 8 Este 16 Nordeste 0 -- -- 59
2021-01-12 11:00:00 5.3 4 Nordeste 10 Nordeste 0 -- -- 62
2021-01-12 10:00:00 2.6 4 Noroeste 8 Norte 0 -- -- 76
2021-01-12 09:00:00 0.2 3 Noroeste 6 Noroeste 0 -- -- 86
2021-01-12 08:00:00 0.2 3 Noroeste 6 Noroeste 0 -- -- 87
2021-01-12 07:00:00 0.5 4 Noroeste 6 Noroeste 0 -- -- 86
2021-01-12 06:00:00 1.5 3 Oeste 6 Noroeste 0 -- -- 81
2021-01-12 05:00:00 2 0 Calma 5 Oeste 0 -- -- 82
2021-01-12 04:00:00 1.9 0 Calma 8 Nordeste 0 -- -- 84
2021-01-12 03:00:00 1.1 2 Oeste 4 Oeste 0 -- -- 90
2021-01-12 02:00:00 0.8 3 Sudoeste 5 Sudoeste 0 -- -- 93
2021-01-12 01:00:00 0.7 3 Oeste 8 Oeste 0 -- -- 93
2021-01-12 00:00:00 1.5 2 Oeste 5 Norte 0 -- -- 91
2021-01-11 23:00:00 2.3 0 Calma 3 Noroeste 0 -- -- 90
2021-01-11 22:00:00 3.4 0 Calma 5 Nordeste 0 -- -- 88
2021-01-11 21:00:00 4.9 2 Este 5 Nordeste 0 -- -- 83
2021-01-11 20:00:00 6.7 0 Calma 7 Nordeste 0 -- -- 80
2021-01-11 19:00:00 8.9 2 Norte 4 Oeste 0 -- -- 75
2021-01-11 18:00:00 11.9 2 Sur 10 Nordeste 0 -- -- 58
2021-01-11 17:00:00 12.9 2 Norte 9 Este 0 -- -- 54
2021-01-11 16:00:00 12.6 5 Este 12 Nordeste 0 -- -- 54
2021-01-11 15:00:00 12.2 5 Norte 13 Nordeste 0 -- -- 59
2021-01-11 14:00:00 11.3 8 Nordeste 17 Nordeste 0 -- -- 60
2021-01-11 13:00:00 10.8 9 Nordeste 18 Nordeste 0 -- -- 61
2021-01-11 12:00:00 9.3 8 Nordeste 16 Nordeste 0 -- -- 68
2021-01-11 11:00:00 7 7 Nordeste 13 Nordeste 0 -- -- 75
2021-01-11 10:00:00 4 0 Calma 5 Oeste 0 -- -- 87
2021-01-11 09:00:00 1.5 3 Noroeste 8 Noroeste 0 -- -- 94
2021-01-11 08:00:00 1.7 0 Calma 4 Oeste 0 -- -- 90
2021-01-11 07:00:00 3 2 Noroeste 14 Nordeste 0 -- -- 86
2021-01-11 06:00:00 2.8 0 Calma 10 Nordeste 0 -- -- 87
2021-01-11 05:00:00 4.1 5 Nordeste 13 Nordeste 0 -- -- 84
2021-01-11 04:00:00 5.4 3 Nordeste 13 Norte 0 -- -- 80
2021-01-11 03:00:00 5.5 4 Norte 10 Norte 0 -- -- 81
2021-01-11 02:00:00 5.2 4 Norte 11 Norte 0 -- -- 86
2021-01-11 01:00:00 5.5 4 Nordeste 10 Nordeste 0 -- -- 86
2021-01-11 00:00:00 5.7 4 Nordeste 12 Nordeste 0 -- -- 85
2021-01-10 23:00:00 4.9 2 Norte 10 Norte 0 -- -- 88
2021-01-10 22:00:00 4.7 5 Norte 10 Norte 0 -- -- 91
2021-01-10 21:00:00 5.4 8 Norte 11 Norte 0 -- -- 88
2021-01-10 20:00:00 6.5 7 Norte 19 Norte 0 -- -- 85
2021-01-10 19:00:00 7.1 6 Noroeste 9 Noroeste 0 -- -- 86
2021-01-10 18:00:00 7.8 2 Noroeste 4 Noroeste 0 -- -- 80
2021-01-10 17:00:00 8.2 0 Calma 10 Este 0 -- -- 73
2021-01-10 16:00:00 7.7 6 Este 16 Este 0 -- -- 74
2021-01-10 15:00:00 7.4 9 Este 15 Este 0 -- -- 78
2021-01-10 14:00:00 7.4 9 Nordeste 19 Nordeste 0 -- -- 78
2021-01-10 13:00:00 6.8 7 Este 18 Este 0 -- -- 77
2021-01-10 12:00:00 5.8 7 Nordeste 20 Este 0 -- -- 86
2021-01-10 11:00:00 4.5 9 Nordeste 14 Nordeste 0 -- -- 92
2021-01-10 10:00:00 3.5 5 Este 12 Este 0 -- -- 97
2021-01-10 09:00:00 3 3 Este 8 Nordeste 0 -- -- 97
2021-01-10 08:00:00 2.4 0 Calma 5 Nordeste 0 -- -- 97
2021-01-10 07:00:00 2.1 4 Este 6 Nordeste 0 -- -- 96
2021-01-10 06:00:00 2.4 0 Calma 6 Noroeste 0 -- -- 95
2021-01-10 05:00:00 2.6 3 Noroeste 5 Oeste 0 -- -- 94
2021-01-10 04:00:00 2.9 3 Sudoeste 12 Oeste 0 -- -- 94
2021-01-10 03:00:00 2.8 0 Calma 5 Oeste 0 -- -- 94
2021-01-10 02:00:00 2.5 2 Noroeste 9 Noroeste 0 -- -- 94
2021-01-10 01:00:00 2.8 4 Oeste 12 Oeste 0 -- -- 91
2021-01-10 00:00:00 3.9 7 Oeste 13 Oeste 0 -- -- 89
2021-01-09 23:00:00 4.3 0 Calma 6 Oeste 0 -- -- 89
2021-01-09 22:00:00 4.6 0 Calma 8 Oeste 0 -- -- 89
2021-01-09 21:00:00 4 7 Oeste 9 Oeste 0 -- -- 89
2021-01-09 20:00:00 4.6 4 Noroeste 11 Noroeste 0 -- -- 83
2021-01-09 19:00:00 6.4 6 Noroeste 10 Oeste 0 -- -- 75
2021-01-09 18:00:00 8.8 8 Oeste 14 Oeste 0 -- -- 65
2021-01-09 17:00:00 9.8 8 Oeste 21 Oeste 0 -- -- 59
2021-01-09 16:00:00 9.8 9 Oeste 24 Oeste 0 -- -- 59
2021-01-09 15:00:00 9 18 Oeste 30 Oeste 0 -- -- 61
2021-01-09 14:00:00 9.3 14 Oeste 24 Sudoeste 0 -- -- 60
2021-01-09 13:00:00 8.7 13 Sudoeste 21 Sudoeste 0 -- -- 64
2021-01-09 12:00:00 7 12 Oeste 21 Oeste 0 -- -- 70
2021-01-09 11:00:00 5.2 6 Oeste 17 Oeste 0 -- -- 78
2021-01-09 10:00:00 3.8 5 Oeste 15 Noroeste 0 -- -- 83
2021-01-09 09:00:00 2.8 8 Noroeste 29 Oeste 0 -- -- 86
2021-01-09 08:00:00 3.4 19 Oeste 28 Oeste 0 -- -- 85
2021-01-09 07:00:00 4.4 16 Oeste 33 Oeste 0 -- -- 86
2021-01-09 06:00:00 5.2 17 Oeste 26 Oeste 0 -- -- 88
2021-01-09 05:00:00 5.5 13 Oeste 22 Oeste 0 -- -- 91
2021-01-09 04:00:00 5.3 12 Oeste 19 Oeste 0 -- -- 92
2021-01-09 03:00:00 5.6 8 Noroeste 22 Oeste 0 -- -- 95
2021-01-09 02:00:00 6.2 10 Noroeste 17 Oeste 0 -- -- 92
2021-01-09 01:00:00 6.6 10 Oeste 18 Oeste 0 -- -- 94
2021-01-09 00:00:00 7.1 5 Noroeste 15 Oeste 0.2 -- -- 94
2021-01-08 23:00:00 7.4 9 Oeste 18 Oeste 0 -- -- 95
2021-01-08 22:00:00 7.5 10 Noroeste 19 Noroeste 0 -- -- 95
2021-01-08 21:00:00 7.6 7 Noroeste 20 Norte 0 -- -- 94
2021-01-08 20:00:00 7.7 7 Norte 25 Nordeste 0.2 -- -- 95
2021-01-08 19:00:00 7.7 13 Norte 32 Norte 0.2 -- -- 97
2021-01-08 18:00:00 8.1 17 Nordeste 31 Norte 0.2 -- -- 98
2021-01-08 17:00:00 8.5 17 Nordeste 36 Nordeste 0.6 -- -- 99
2021-01-08 16:00:00 8.3 21 Nordeste 42 Nordeste 2.2 -- -- 99
2021-01-08 15:00:00 7.9 21 Nordeste 33 Nordeste 3 -- -- 99
2021-01-08 14:00:00 7.5 21 Nordeste 39 Nordeste 6 -- -- 99
2021-01-08 13:00:00 7.3 22 Nordeste 35 Nordeste 4.2 -- -- 99
2021-01-08 12:00:00 7.1 22 Nordeste 37 Nordeste 4 -- -- 98
2021-01-08 11:00:00 7.1 21 Nordeste 31 Nordeste 2.4 -- -- 96
2021-01-08 10:00:00 7.1 18 Nordeste 31 Nordeste 0 -- -- 94
2021-01-08 09:00:00 6.6 17 Nordeste 32 Nordeste 0.2 -- -- 95
2021-01-08 08:00:00 6.4 17 Nordeste 31 Nordeste 0.4 -- -- 97
2021-01-08 07:00:00 6.3 14 Nordeste 24 Nordeste 1.6 -- -- 97
2021-01-08 06:00:00 6.6 7 Nordeste 23 Nordeste 0 -- -- 94
2021-01-08 05:00:00 6.7 13 Nordeste 29 Nordeste 0 -- -- 93
2021-01-08 04:00:00 6.4 15 Nordeste 28 Nordeste 0.4 -- -- 93
2021-01-08 03:00:00 6.3 10 Nordeste 24 Nordeste 0 -- -- 93
2021-01-08 02:00:00 6.2 12 Nordeste 23 Nordeste 0.2 -- -- 94
2021-01-08 01:00:00 6.3 11 Nordeste 27 Nordeste 0.6 -- -- 94
2021-01-08 00:00:00 6.6 16 Nordeste 28 Nordeste 0.8 -- -- 96
2021-01-07 23:00:00 6.8 12 Nordeste 24 Nordeste 0.6 -- -- 97
2021-01-07 22:00:00 6.9 12 Nordeste 25 Este 0.8 -- -- 96
2021-01-07 21:00:00 7.3 14 Nordeste 24 Este 0.8 -- -- 95
2021-01-07 20:00:00 7.7 12 Nordeste 23 Este 0 -- -- 92
2021-01-07 19:00:00 8.1 12 Este 19 Este 0 -- -- 89
2021-01-07 18:00:00 8.5 14 Este 24 Este 0 -- -- 88
2021-01-07 17:00:00 8.9 14 Este 25 Nordeste 0 -- -- 87
2021-01-07 16:00:00 9.5 14 Este 22 Este 0 -- -- 86
2021-01-07 15:00:00 9.5 13 Este 23 Nordeste 0 -- -- 85
2021-01-07 14:00:00 9 15 Este 25 Nordeste 0 -- -- 87
2021-01-07 13:00:00 8.8 14 Nordeste 25 Nordeste 0 -- -- 89
2021-01-07 12:00:00 8.4 10 Nordeste 21 Este 0 -- -- 92
2021-01-07 11:00:00 7.6 7 Este 21 Este 0 -- -- 96
2021-01-07 10:00:00 7.4 3 Norte 14 Nordeste 0.2 -- -- 95
2021-01-07 09:00:00 7.1 4 Este 13 Este 0 -- -- 95
2021-01-07 08:00:00 7.2 6 Este 14 Este 0 -- -- 94
2021-01-07 07:00:00 7.4 7 Nordeste 21 Nordeste 0 -- -- 93
2021-01-07 06:00:00 7.4 12 Nordeste 25 Nordeste 0 -- -- 94
2021-01-07 05:00:00 7.1 14 Nordeste 28 Nordeste 0.2 -- -- 97
2021-01-07 04:00:00 6.8 15 Nordeste 27 Nordeste 0.8 -- -- 97
2021-01-07 03:00:00 6.7 17 Este 29 Este 0.4 -- -- 96
2021-01-07 02:00:00 6.6 16 Nordeste 29 Nordeste 0.4 -- -- 96
2021-01-07 01:00:00 6.5 16 Nordeste 27 Nordeste 1.4 -- -- 97
2021-01-07 00:00:00 6.6 14 Nordeste 27 Este 1 -- -- 97
2021-01-06 23:00:00 6.8 16 Nordeste 26 Nordeste 1.8 -- -- 97
2021-01-06 22:00:00 7 14 Nordeste 22 Nordeste 2 -- -- 96
2021-01-06 21:00:00 7.3 14 Nordeste 29 Nordeste 1.6 -- -- 93
2021-01-06 20:00:00 7.9 13 Nordeste 28 Este 1.6 -- -- 89
2021-01-06 19:00:00 9.3 17 Este 30 Este 0.2 -- -- 81
2021-01-06 18:00:00 10.5 12 Nordeste 27 Nordeste 0 -- -- 69
2021-01-06 17:00:00 10.9 14 Nordeste 27 Este 0 -- -- 68
2021-01-06 16:00:00 11.2 17 Nordeste 28 Este 0 -- -- 68
2021-01-06 15:00:00 11.7 16 Nordeste 29 Nordeste 0 -- -- 63
2021-01-06 14:00:00 10.3 17 Nordeste 28 Nordeste 0 -- -- 65
2021-01-06 13:00:00 8.6 10 Nordeste 22 Este 0 -- -- 66
2021-01-06 12:00:00 7.6 5 Nordeste 17 Nordeste 0 -- -- 66
2021-01-06 11:00:00 5.7 6 Nordeste 15 Nordeste 0 -- -- 71
2021-01-06 10:00:00 3.4 2 Oeste 9 Oeste 0 -- -- 81
2021-01-06 09:00:00 2.7 5 Noroeste 7 Oeste 0 -- -- 82
2021-01-06 08:00:00 2.8 2 Noroeste 5 Norte 0 -- -- 81
2021-01-06 07:00:00 2.1 2 Noroeste 7 Noroeste 0 -- -- 83
2021-01-06 06:00:00 2.1 0 Calma 6 Noroeste 0 -- -- 82
2021-01-06 05:00:00 1.2 3 Noroeste 6 Oeste 0 -- -- 84
2021-01-06 04:00:00 1.8 2 Oeste 7 Nordeste 0 -- -- 83
2021-01-06 03:00:00 1.7 3 Noroeste 8 Norte 0 -- -- 84
2021-01-06 02:00:00 2.6 0 Calma 9 Norte 0 -- -- 81
2021-01-06 01:00:00 2.6 0 Calma 10 Norte 0 -- -- 83
2021-01-06 00:00:00 4.5 5 Norte 17 Nordeste 0 -- -- 77
2021-01-05 23:00:00 4.7 6 Nordeste 14 Norte 0 -- -- 82
2021-01-05 22:00:00 5.3 10 Nordeste 15 Nordeste 0 -- -- 85
2021-01-05 21:00:00 6.1 12 Nordeste 16 Nordeste 0 -- -- 85
2021-01-05 20:00:00 7.1 8 Nordeste 12 Nordeste 0 -- -- 81
2021-01-05 19:00:00 8.3 9 Nordeste 12 Nordeste 0 -- -- 78
2021-01-05 18:00:00 9.7 6 Nordeste 15 Este 0 -- -- 75
2021-01-05 17:00:00 10.6 9 Este 14 Nordeste 0 -- -- 73
2021-01-05 16:00:00 10.7 8 Este 15 Nordeste 0 -- -- 72
2021-01-05 15:00:00 10.6 9 Este 19 Este 0 -- -- 74
2021-01-05 14:00:00 10.2 11 Nordeste 19 Nordeste 0 -- -- 76
2021-01-05 13:00:00 9.5 10 Nordeste 23 Nordeste 0 -- -- 79
2021-01-05 12:00:00 8.6 14 Nordeste 24 Nordeste 0 -- -- 81
2021-01-05 11:00:00 6.5 10 Nordeste 18 Nordeste 0 -- -- 89
2021-01-05 10:00:00 4 3 Noroeste 7 Oeste 0 -- -- 98
2021-01-05 09:00:00 1.7 3 Noroeste 6 Nordeste 0 -- -- 96
2021-01-05 08:00:00 2.1 5 Oeste 8 Oeste 0 -- -- 97
2021-01-05 07:00:00 2.8 3 Noroeste 12 Norte 0 -- -- 98
2021-01-05 06:00:00 1.9 4 Noroeste 7 Nordeste 0 -- -- 97
2021-01-05 05:00:00 2 2 Oeste 5 Oeste 0 -- -- 97
2021-01-05 04:00:00 2.8 0 Calma 6 Noroeste 0 -- -- 97
2021-01-05 03:00:00 2.9 5 Noroeste 8 Noroeste 0 -- -- 96
2021-01-05 02:00:00 2.8 3 Norte 8 Norte 0 -- -- 95
2021-01-05 01:00:00 3.5 2 Noroeste 4 Norte 0 -- -- 93
2021-01-05 00:00:00 4.7 0 Calma 6 Norte 0 -- -- 90
2021-01-04 23:00:00 6.6 2 Noroeste 5 Norte 0 -- -- 89
2021-01-04 22:00:00 7.9 3 Sudoeste 4 Sudoeste 0 -- -- 86
2021-01-04 21:00:00 8.8 0 Calma 5 Oeste 0 -- -- 83
2021-01-04 20:00:00 9.7 2 Sudoeste 16 Oeste 0 -- -- 78
2021-01-04 19:00:00 10.2 8 Oeste 13 Oeste 0 -- -- 73
2021-01-04 18:00:00 11.3 8 Oeste 14 Oeste 0 -- -- 67
2021-01-04 17:00:00 12.1 7 Oeste 17 Oeste 0 -- -- 62
2021-01-04 16:00:00 12.5 9 Oeste 20 Noroeste 0 -- -- 60
2021-01-04 15:00:00 12.8 14 Oeste 26 Oeste 0 -- -- 61
2021-01-04 14:00:00 11.8 14 Oeste 22 Oeste 0 -- -- 62
2021-01-04 13:00:00 10.4 3 Este 10 Este 0 -- -- 70
2021-01-04 12:00:00 8.2 0 Calma 4 Oeste 0 -- -- 75
2021-01-04 11:00:00 4.4 3 Oeste 5 Noroeste 0 -- -- 91
2021-01-04 10:00:00 0.8 0 Calma 5 Noroeste 0 -- -- 98
2021-01-04 09:00:00 -1.7 5 Noroeste 8 Noroeste 0 -- -- 97
2021-01-04 08:00:00 -2.2 4 Noroeste 8 Oeste 0 -- -- 96
2021-01-04 07:00:00 -1.7 0 Calma 2 Noroeste 0 -- -- 95
2021-01-04 06:00:00 -1.3 0 Calma 4 Oeste 0 -- -- 95
2021-01-04 05:00:00 -1.1 0 Calma 3 Noroeste 0 -- -- 94
2021-01-04 04:00:00 -0.6 0 Calma 3 Sudeste 0 -- -- 93
2021-01-04 03:00:00 0.5 0 Calma 6 Noroeste 0 -- -- 92
2021-01-04 02:00:00 1.4 2 Noroeste 7 Norte 0 -- -- 91
2021-01-04 01:00:00 2.2 0 Calma 12 Noroeste 0 -- -- 87
2021-01-04 00:00:00 2.6 5 Noroeste 8 Norte 0 -- -- 87
2021-01-03 23:00:00 2.7 3 Noroeste 11 Norte 0 -- -- 85
2021-01-03 22:00:00 4.1 4 Noroeste 10 Norte 0 -- -- 80
2021-01-03 21:00:00 5.1 8 Norte 13 Noroeste 0 -- -- 76
2021-01-03 20:00:00 5.6 3 Noroeste 7 Noroeste 0 -- -- 73
2021-01-03 19:00:00 7.8 3 Oeste 15 Oeste 0 -- -- 64
2021-01-03 18:00:00 10.7 13 Oeste 20 Oeste 0 -- -- 51
2021-01-03 17:00:00 12.5 14 Oeste 25 Oeste 0 -- -- 49
2021-01-03 16:00:00 12.9 16 Oeste 29 Oeste 0 -- -- 45
2021-01-03 15:00:00 12.7 14 Oeste 26 Oeste 0 -- -- 46
2021-01-03 14:00:00 12.4 13 Oeste 21 Oeste 0 -- -- 43
2021-01-03 13:00:00 11.2 3 Sur 8 Sur 0 -- -- 58
2021-01-03 12:00:00 8.1 0 Calma 5 Sur 0 -- -- 69
2021-01-03 11:00:00 5.1 3 Sudeste 5 Sudeste 0 -- -- 81
2021-01-03 10:00:00 0.5 0 Calma 4 Norte 0 -- -- 97
2021-01-03 09:00:00 -2.1 0 Calma 6 Oeste 0 -- -- 97
2021-01-03 08:00:00 -1.9 2 Noroeste 4 Noroeste 0 -- -- 96
2021-01-03 07:00:00 -1.7 2 Noroeste 7 Noroeste 0 -- -- 95
2021-01-03 06:00:00 -1.5 6 Noroeste 7 Noroeste 0 -- -- 95
2021-01-03 05:00:00 -1.5 2 Noroeste 6 Norte 0 -- -- 94
2021-01-03 04:00:00 -1.3 0 Calma 8 Norte 0 -- -- 93
2021-01-03 03:00:00 -0.4 0 Calma 6 Noroeste 0 -- -- 93
2021-01-03 02:00:00 0.4 3 Noroeste 6 Noroeste 0 -- -- 95
2021-01-03 01:00:00 -0.5 2 Noroeste 5 Noroeste 0 -- -- 92
2021-01-03 00:00:00 0.6 0 Calma 6 Noroeste 0 -- -- 90
2021-01-02 23:00:00 1.9 0 Calma 5 Norte 0 -- -- 86
2021-01-02 22:00:00 3 3 Noroeste 8 Noroeste 0 -- -- 84
2021-01-02 21:00:00 4.4 6 Noroeste 10 Noroeste -- -- -- 81
2021-01-02 20:00:00 5.6 8 Noroeste 11 Oeste 0 -- -- 76
2021-01-02 19:00:00 7.6 6 Noroeste 10 Noroeste 0 -- -- 68
2021-01-02 18:00:00 11.1 9 Noroeste 23 Oeste 0 -- -- 54
2021-01-02 17:00:00 12.7 15 Noroeste 24 Noroeste 0 -- -- 46
2021-01-02 16:00:00 13.1 13 Oeste 25 Oeste 0 -- -- 45
2021-01-02 15:00:00 12.4 11 Oeste 21 Oeste 0 -- -- 53
2021-01-02 14:00:00 11.6 11 Oeste 19 Noroeste 0 -- -- 51